Time;durP1;ratioP1;P1;durP2;ratioP2;P2;SDS_P1;SDS_P2;PMS_P1;PMS_P2;Temp;Humidity;BMP_temperature;BMP_pressure;BME280_temperature;BME280_humidity;BME280_pressure;Samples;Min_cycle;Max_cycle;Signal;HPM_P1;HPM_P2
2022/04/30 00:00:52;;;;;;;7.03;4.75;;;18.40;65.60;;;;;;5031687;28;20025;-69
2022/04/30 00:03:19;;;;;;;9.93;5.55;;;18.40;65.60;;;;;;5032852;28;20104;-69
2022/04/30 00:05:44;;;;;;;8.68;5.10;;;18.40;65.60;;;;;;5032852;28;20025;-69
2022/04/30 00:08:10;;;;;;;9.23;4.82;;;18.40;65.60;;;;;;5031448;28;20045;-68
2022/04/30 00:10:39;;;;;;;7.40;4.75;;;18.40;65.60;;;;;;5032909;28;20029;-69
2022/04/30 00:13:10;;;;;;;9.32;5.25;;;18.40;65.70;;;;;;5032407;28;20026;-69
2022/04/30 00:15:36;;;;;;;7.57;4.68;;;18.40;65.70;;;;;;5032832;28;20080;-69
2022/04/30 00:18:02;;;;;;;12.10;4.63;;;18.40;65.70;;;;;;5031464;28;20419;-69
2022/04/30 00:20:28;;;;;;;7.85;4.53;;;18.40;65.70;;;;;;5031377;28;20045;-69
2022/04/30 00:22:53;;;;;;;8.38;4.60;;;18.40;65.70;;;;;;5032840;28;20026;-69
2022/04/30 00:25:19;;;;;;;11.20;4.75;;;18.40;65.80;;;;;;5032872;28;20096;-69
2022/04/30 00:27:45;;;;;;;7.15;4.40;;;18.40;65.70;;;;;;5032322;28;20033;-69
2022/04/30 00:30:11;;;;;;;7.28;4.50;;;18.40;65.70;;;;;;5036577;28;20029;-69
2022/04/30 00:32:37;;;;;;;7.07;4.55;;;18.40;65.70;;;;;;5036567;28;20013;-69
2022/04/30 00:35:03;;;;;;;7.05;4.75;;;18.40;65.80;;;;;;5035146;28;20026;-69
2022/04/30 00:37:29;;;;;;;9.00;4.63;;;18.40;65.80;;;;;;5035352;28;20024;-68
2022/04/30 00:39:54;;;;;;;8.35;4.57;;;18.40;65.80;;;;;;5036274;28;20026;-68
2022/04/30 00:42:20;;;;;;;8.80;4.88;;;18.40;65.80;;;;;;5036311;28;20064;-69
2022/04/30 00:44:47;;;;;;;9.30;4.78;;;18.40;65.80;;;;;;5036211;28;20100;-69
2022/04/30 00:47:19;;;;;;;7.13;4.85;;;18.40;65.90;;;;;;5034905;28;20402;-69
2022/04/30 00:49:48;;;;;;;6.95;4.10;;;18.40;65.80;;;;;;5036249;28;20048;-69
2022/04/30 00:52:15;;;;;;;8.77;4.22;;;18.40;65.90;;;;;;5035983;28;20025;-69
2022/04/30 00:54:41;;;;;;;8.38;4.38;;;18.40;65.90;;;;;;5035203;28;20017;-69
2022/04/30 00:57:09;;;;;;;6.75;4.30;;;18.40;65.90;;;;;;5034800;28;20498;-69
2022/04/30 00:59:37;;;;;;;7.05;4.75;;;18.40;65.90;;;;;;5034972;28;20017;-69
2022/04/30 01:02:03;;;;;;;7.88;4.97;;;18.40;65.90;;;;;;5034955;28;20022;-69
2022/04/30 01:04:28;;;;;;;5.65;4.03;;;18.40;66.00;;;;;;5034663;28;20030;-69
2022/04/30 01:07:00;;;;;;;8.00;4.63;;;18.30;66.00;;;;;;5036095;28;20026;-69
2022/04/30 01:09:29;;;;;;;7.50;4.10;;;18.40;66.00;;;;;;5034904;28;20029;-69
2022/04/30 01:11:56;;;;;;;7.20;4.63;;;18.40;66.00;;;;;;5034600;28;20022;-69
2022/04/30 01:14:22;;;;;;;5.55;4.20;;;18.30;66.00;;;;;;5034707;28;20552;-69
2022/04/30 01:16:48;;;;;;;5.78;4.00;;;18.40;66.00;;;;;;5034567;28;20530;-69
2022/04/30 01:19:18;;;;;;;5.50;4.18;;;18.40;66.10;;;;;;5034367;28;20021;-69
2022/04/30 01:21:45;;;;;;;6.18;3.80;;;18.30;66.00;;;;;;5035733;28;20025;-69
2022/04/30 01:24:11;;;;;;;6.57;4.32;;;18.30;66.10;;;;;;5034513;28;20030;-69
2022/04/30 01:26:37;;;;;;;5.07;3.95;;;18.30;66.10;;;;;;5035738;28;20023;-69
2022/04/30 01:29:03;;;;;;;6.43;4.13;;;18.30;66.10;;;;;;5031346;28;20064;-69
2022/04/30 01:39:40;;;;;;;6.05;4.07;;;18.30;66.20;;;;;;5014257;28;20083;-69
2022/04/30 01:42:11;;;;;;;8.88;4.35;;;18.30;66.30;;;;;;5015597;28;20109;-69
2022/04/30 01:44:41;;;;;;;6.80;4.28;;;18.40;66.40;;;;;;5019044;28;20029;-69
2022/04/30 01:47:07;;;;;;;5.05;3.95;;;18.30;66.30;;;;;;5033838;28;20025;-69
2022/04/30 01:49:32;;;;;;;5.72;3.90;;;18.30;66.30;;;;;;5017761;28;20033;-69
2022/04/30 01:51:58;;;;;;;4.63;3.63;;;18.40;66.40;;;;;;5035282;28;20028;-69
2022/04/30 01:54:24;;;;;;;7.15;4.05;;;18.30;66.30;;;;;;5033928;28;20032;-69
2022/04/30 01:56:49;;;;;;;5.80;4.00;;;18.30;66.40;;;;;;5035157;28;20089;-68
2022/04/30 01:59:15;;;;;;;6.32;4.20;;;18.40;66.40;;;;;;5035044;28;20028;-69
2022/04/30 02:01:41;;;;;;;4.50;3.60;;;18.30;66.40;;;;;;5035048;28;20036;-68
2022/04/30 02:04:06;;;;;;;5.63;3.88;;;18.30;66.40;;;;;;5033532;28;20034;-69
2022/04/30 02:06:32;;;;;;;4.68;3.55;;;18.30;66.40;;;;;;5033814;28;20025;-69
2022/04/30 02:08:58;;;;;;;5.20;3.55;;;18.30;66.40;;;;;;5034922;28;20113;-69
2022/04/30 02:11:24;;;;;;;5.40;3.97;;;18.40;66.50;;;;;;5034628;28;20032;-69
2022/04/30 02:13:53;;;;;;;6.63;4.22;;;18.30;66.40;;;;;;5034873;28;20033;-69
2022/04/30 02:16:22;;;;;;;6.97;3.97;;;18.30;66.50;;;;;;5033297;28;20071;-69
2022/04/30 02:18:48;;;;;;;7.00;3.85;;;18.30;66.50;;;;;;5034698;28;20083;-69
2022/04/30 02:21:14;;;;;;;5.55;4.00;;;18.30;66.50;;;;;;5033278;28;20492;-69
2022/04/30 02:23:39;;;;;;;5.72;4.03;;;18.30;66.50;;;;;;5033356;28;20060;-69
2022/04/30 02:26:05;;;;;;;5.60;3.60;;;18.30;66.60;;;;;;5034445;28;20109;-69
2022/04/30 02:28:31;;;;;;;5.60;4.30;;;18.30;66.50;;;;;;5033195;28;20037;-69
2022/04/30 02:30:56;;;;;;;5.63;3.35;;;18.30;66.60;;;;;;5034108;28;20032;-69
2022/04/30 02:33:22;;;;;;;5.70;3.50;;;18.30;66.60;;;;;;5034405;28;20041;-69
2022/04/30 02:35:48;;;;;;;4.30;3.55;;;18.30;66.70;;;;;;5034295;28;20025;-69
2022/04/30 02:38:13;;;;;;;6.03;4.20;;;18.30;66.60;;;;;;5032837;28;20389;-69
2022/04/30 02:40:40;;;;;;;5.07;3.63;;;18.30;67.70;;;;;;5033046;28;20496;-69
2022/04/30 02:43:07;;;;;;;4.95;3.53;;;18.30;66.60;;;;;;5033098;28;20621;-69
2022/04/30 02:45:35;;;;;;;4.95;3.92;;;18.30;66.60;;;;;;5032726;28;20033;-69
2022/04/30 02:48:02;;;;;;;5.78;3.40;;;18.30;66.70;;;;;;5034167;28;20034;-69
2022/04/30 02:50:28;;;;;;;6.90;3.65;;;18.30;66.70;;;;;;5033631;28;20100;-69
2022/04/30 02:52:55;;;;;;;5.90;3.50;;;18.40;66.70;;;;;;5032487;28;20112;-69
2022/04/30 02:55:21;;;;;;;6.55;3.75;;;18.30;66.70;;;;;;5032786;28;20499;-69
2022/04/30 03:00:44;;;;;;;5.78;4.00;;;18.30;66.70;;;;;;5032635;28;20396;-69
2022/04/30 03:03:11;;;;;;;9.85;4.00;;;18.30;66.80;;;;;;5032517;28;20029;-68
2022/04/30 03:05:37;;;;;;;6.68;3.50;;;18.30;67.80;;;;;;5033719;28;20022;-69
2022/04/30 03:08:12;;;;;;;5.47;3.70;;;18.30;66.80;;;;;;5032848;28;20032;-69
2022/04/30 03:10:38;;;;;;;4.88;3.53;;;18.30;66.80;;;;;;5033886;28;20053;-68
2022/04/30 03:13:05;;;;;;;3.72;3.33;;;18.30;66.80;;;;;;5032287;28;20079;-68
2022/04/30 03:15:31;;;;;;;5.03;3.40;;;18.30;66.80;;;;;;5032364;28;20021;-68
2022/04/30 03:23:25;;;;;;;4.43;3.63;;;18.30;66.90;;;;;;5033502;28;20079;-69
2022/04/30 03:25:52;;;;;;;4.32;3.42;;;18.30;66.90;;;;;;5033370;28;20484;-69
2022/04/30 03:28:17;;;;;;;6.25;3.17;;;18.20;66.90;;;;;;5033514;28;20464;-69
2022/04/30 03:30:43;;;;;;;4.28;3.33;;;18.20;66.80;;;;;;5032006;28;20036;-69
2022/04/30 03:33:09;;;;;;;4.13;3.30;;;18.20;66.90;;;;;;5033428;28;20040;-69
2022/04/30 03:35:38;;;;;;;6.38;3.40;;;18.20;66.90;;;;;;5033380;28;20025;-69
2022/04/30 03:38:05;;;;;;;3.63;3.10;;;18.30;66.90;;;;;;5033474;28;20022;-69
2022/04/30 03:40:31;;;;;;;4.57;3.30;;;18.20;66.90;;;;;;5033129;28;20034;-69
2022/04/30 03:42:56;;;;;;;3.92;3.47;;;18.20;66.90;;;;;;5033095;28;20032;-70
2022/04/30 03:45:23;;;;;;;5.43;3.55;;;18.20;66.90;;;;;;5032953;28;20395;-69
2022/04/30 03:47:48;;;;;;;4.68;3.80;;;18.20;66.90;;;;;;5033084;28;20484;-69
2022/04/30 03:50:14;;;;;;;3.63;3.15;;;18.20;66.90;;;;;;5032921;28;20029;-69
2022/04/30 03:52:40;;;;;;;5.43;3.30;;;18.20;66.90;;;;;;5033158;28;20068;-69
2022/04/30 03:55:07;;;;;;;3.42;2.95;;;18.20;66.90;;;;;;5033077;28;20049;-69
2022/04/30 03:57:32;;;;;;;4.50;3.40;;;18.20;66.90;;;;;;5031762;28;20026;-69
2022/04/30 03:59:58;;;;;;;4.65;3.38;;;18.20;66.90;;;;;;5031747;28;20033;-69
2022/04/30 04:02:24;;;;;;;4.38;2.97;;;18.20;66.90;;;;;;5032405;28;20033;-69
2022/04/30 04:04:52;;;;;;;3.20;2.90;;;18.20;67.00;;;;;;5031931;28;20032;-69
2022/04/30 04:07:18;;;;;;;4.07;3.35;;;18.20;66.90;;;;;;5032927;28;20037;-69
2022/04/30 04:09:44;;;;;;;3.90;3.35;;;18.20;67.00;;;;;;5015240;28;20513;-69
2022/04/30 04:12:10;;;;;;;4.35;3.05;;;18.20;67.00;;;;;;5032964;28;20061;-69
2022/04/30 04:17:38;;;;;;;3.05;2.75;;;18.20;67.00;;;;;;5033143;28;20032;-69
2022/04/30 04:20:24;;;;;;;3.03;2.65;;;18.20;67.10;;;;;;5033084;28;20045;-69
2022/04/30 04:22:52;;;;;;;6.47;3.47;;;18.20;67.00;;;;;;5032874;28;20559;-69
2022/04/30 04:28:02;;;;;;;3.25;2.90;;;18.20;67.10;;;;;;5032623;28;20036;-69
2022/04/30 04:30:29;;;;;;;6.50;3.15;;;18.20;68.20;;;;;;5032405;28;20030;-69
2022/04/30 04:32:55;;;;;;;5.53;3.15;;;18.20;67.10;;;;;;5031403;28;20468;-69
2022/04/30 04:35:21;;;;;;;3.50;3.05;;;18.20;67.10;;;;;;5031422;28;20468;-69
2022/04/30 04:37:46;;;;;;;3.70;2.95;;;18.20;67.10;;;;;;5032573;28;20034;-69
2022/04/30 04:40:13;;;;;;;3.40;3.10;;;18.20;67.10;;;;;;5032367;28;20041;-68
2022/04/30 04:42:39;;;;;;;4.03;2.97;;;18.20;67.10;;;;;;5032141;28;20035;-69
2022/04/30 04:45:05;;;;;;;4.07;3.17;;;18.20;67.10;;;;;;5032227;28;20026;-69
2022/04/30 04:47:31;;;;;;;3.35;3.05;;;18.20;67.20;;;;;;5031125;28;20495;-69
2022/04/30 04:49:57;;;;;;;4.57;3.38;;;18.20;67.20;;;;;;5031304;28;20029;-68
2022/04/30 04:52:23;;;;;;;3.28;2.90;;;18.20;67.10;;;;;;5030868;28;20025;-69
2022/04/30 04:54:48;;;;;;;3.85;2.70;;;18.10;67.10;;;;;;5031094;28;20025;-69
2022/04/30 04:57:15;;;;;;;3.08;2.78;;;18.10;67.10;;;;;;5031014;28;20025;-69
2022/04/30 04:59:41;;;;;;;4.68;3.17;;;18.10;67.10;;;;;;5031202;28;20044;-69
2022/04/30 05:02:06;;;;;;;5.82;2.95;;;18.10;67.20;;;;;;5030691;28;20486;-69
2022/04/30 05:04:33;;;;;;;3.55;2.90;;;18.20;67.20;;;;;;5030473;28;20026;-68
2022/04/30 05:06:59;;;;;;;3.22;2.70;;;18.20;67.30;;;;;;5030646;28;20468;-68
2022/04/30 05:09:25;;;;;;;4.72;3.17;;;18.10;67.20;;;;;;5029681;28;20078;-69
2022/04/30 05:11:52;;;;;;;3.33;2.95;;;18.10;67.20;;;;;;5031382;28;20033;-68
2022/04/30 05:14:18;;;;;;;5.35;2.90;;;18.10;67.20;;;;;;5031968;28;20022;-69
2022/04/30 05:16:43;;;;;;;3.13;2.75;;;18.10;67.20;;;;;;5034208;28;20087;-68
2022/04/30 05:19:09;;;;;;;4.10;2.67;;;18.10;67.20;;;;;;5034994;28;20080;-69
2022/04/30 05:21:35;;;;;;;3.45;2.90;;;18.10;67.20;;;;;;5034453;28;20057;-69
2022/04/30 05:24:00;;;;;;;6.18;2.85;;;18.20;67.30;;;;;;5035150;28;20030;-68
2022/04/30 05:26:26;;;;;;;5.70;3.30;;;18.20;67.30;;;;;;5025834;28;20034;-69
2022/04/30 05:28:52;;;;;;;4.47;2.65;;;18.10;67.20;;;;;;5013856;28;20022;-69
2022/04/30 05:31:18;;;;;;;3.92;2.90;;;18.10;67.20;;;;;;5021712;28;20033;-69
2022/04/30 05:33:43;;;;;;;4.25;2.97;;;18.10;67.30;;;;;;5017012;28;20044;-69
2022/04/30 05:36:09;;;;;;;2.90;2.42;;;18.10;67.30;;;;;;5014565;28;20030;-68
2022/04/30 05:38:34;;;;;;;4.00;2.70;;;18.10;67.30;;;;;;5014459;28;20018;-68
2022/04/30 05:41:01;;;;;;;3.70;2.80;;;18.20;67.40;;;;;;5014124;28;20108;-68
2022/04/30 05:43:27;;;;;;;4.38;2.60;;;18.20;67.40;;;;;;5014285;28;20114;-68
2022/04/30 05:45:52;;;;;;;3.80;2.50;;;18.10;67.40;;;;;;5027916;28;20104;-69
2022/04/30 05:48:19;;;;;;;2.97;2.40;;;18.10;67.40;;;;;;5033462;28;20018;-69
2022/04/30 05:50:46;;;;;;;5.40;3.10;;;18.20;67.50;;;;;;5034782;28;20060;-68
2022/04/30 05:53:11;;;;;;;2.85;2.65;;;18.10;67.40;;;;;;5034516;28;20064;-69
2022/04/30 05:55:37;;;;;;;4.57;2.67;;;18.20;67.40;;;;;;5034274;28;20061;-69
2022/04/30 05:58:03;;;;;;;6.05;2.78;;;18.10;67.40;;;;;;5034546;28;20100;-68
2022/04/30 06:00:28;;;;;;;3.28;2.50;;;18.10;67.40;;;;;;5033279;28;20103;-68
2022/04/30 06:02:55;;;;;;;3.70;2.72;;;18.20;67.50;;;;;;5034491;28;20032;-69
2022/04/30 06:05:25;;;;;;;4.00;2.72;;;18.10;67.40;;;;;;5034527;28;20037;-68
2022/04/30 06:07:51;;;;;;;3.33;2.60;;;18.20;67.50;;;;;;5033219;28;20025;-68
2022/04/30 06:10:18;;;;;;;4.03;2.78;;;18.10;67.40;;;;;;5034120;28;20030;-68
2022/04/30 06:12:46;;;;;;;3.15;2.60;;;18.10;67.50;;;;;;5034213;28;20121;-68
2022/04/30 06:15:11;;;;;;;2.85;2.60;;;18.10;67.40;;;;;;5034020;28;20037;-68
2022/04/30 06:17:37;;;;;;;4.65;2.67;;;18.10;67.50;;;;;;5033020;28;20492;-68
2022/04/30 06:20:03;;;;;;;4.55;2.60;;;18.20;67.50;;;;;;5034226;28;20079;-68
2022/04/30 06:22:30;;;;;;;6.60;2.50;;;18.10;67.50;;;;;;5032735;28;20087;-68
2022/04/30 06:25:00;;;;;;;3.03;2.72;;;18.10;67.50;;;;;;5033626;28;20023;-68
2022/04/30 06:27:26;;;;;;;3.35;2.55;;;18.10;67.40;;;;;;5033682;28;20022;-68
2022/04/30 06:29:51;;;;;;;3.85;2.72;;;18.10;67.40;;;;;;5033864;28;20108;-68
2022/04/30 06:32:19;;;;;;;3.38;2.42;;;18.20;67.50;;;;;;5033944;28;20032;-68
2022/04/30 06:34:44;;;;;;;4.10;2.80;;;18.20;67.50;;;;;;5033804;28;20022;-68
2022/04/30 06:37:10;;;;;;;2.83;2.50;;;18.10;67.50;;;;;;5033695;28;20108;-68
2022/04/30 06:39:36;;;;;;;5.75;2.80;;;18.10;67.50;;;;;;5032236;28;20022;-68
2022/04/30 06:42:03;;;;;;;4.07;2.40;;;18.10;67.50;;;;;;5033538;28;20056;-68
2022/04/30 06:44:32;;;;;;;3.65;2.60;;;18.20;67.60;;;;;;5033500;28;20044;-68
2022/04/30 06:46:58;;;;;;;4.35;2.90;;;18.20;67.60;;;;;;5033585;28;20104;-68
2022/04/30 06:49:25;;;;;;;3.65;3.22;;;18.20;67.60;;;;;;5033678;28;20100;-68
2022/04/30 06:51:51;;;;;;;2.60;2.40;;;18.20;67.60;;;;;;5032969;28;20052;-68
2022/04/30 06:57:12;;;;;;;5.25;2.85;;;18.10;67.60;;;;;;5033361;28;20112;-69
2022/04/30 06:59:42;;;;;;;3.55;2.70;;;18.10;67.60;;;;;;5032167;28;20041;-68
2022/04/30 07:02:17;;;;;;;3.50;2.67;;;18.20;67.70;;;;;;5032324;28;20021;-68
2022/04/30 07:04:43;;;;;;;2.60;2.40;;;18.10;67.60;;;;;;5016940;28;20026;-68
2022/04/30 07:07:09;;;;;;;3.10;2.58;;;18.10;67.60;;;;;;5031841;28;20026;-68
2022/04/30 07:09:35;;;;;;;3.85;2.53;;;18.10;67.60;;;;;;5033699;28;20113;-69
2022/04/30 07:12:04;;;;;;;5.35;2.83;;;18.10;67.60;;;;;;5031834;28;20100;-68
2022/04/30 07:14:31;;;;;;;2.70;2.50;;;18.10;68.70;;;;;;5033189;28;20083;-68
2022/04/30 07:16:57;;;;;;;3.75;2.65;;;18.10;67.60;;;;;;5033068;28;20041;-68
2022/04/30 07:19:23;;;;;;;2.50;2.30;;;18.10;67.70;;;;;;5033032;28;20076;-68
2022/04/30 07:21:48;;;;;;;4.95;2.53;;;18.10;67.60;;;;;;5031208;28;20504;-69
2022/04/30 07:24:14;;;;;;;3.65;2.60;;;18.10;67.70;;;;;;5032834;28;20041;-69
2022/04/30 07:26:40;;;;;;;3.55;2.40;;;18.10;67.70;;;;;;5033069;28;20090;-69
2022/04/30 07:29:06;;;;;;;2.80;2.40;;;18.10;67.70;;;;;;5032768;28;20399;-68
2022/04/30 07:31:31;;;;;;;2.55;2.33;;;18.10;67.70;;;;;;5025333;28;20563;-69
2022/04/30 07:33:57;;;;;;;2.70;2.13;;;18.10;67.70;;;;;;5019503;28;20060;-69
2022/04/30 07:36:23;;;;;;;5.07;2.70;;;18.10;67.70;;;;;;5013040;28;20018;-68
2022/04/30 07:38:48;;;;;;;5.38;4.13;;;18.10;67.60;;;;;;5012622;28;20117;-69
2022/04/30 07:41:14;;;;;;;5.45;4.32;;;18.10;66.80;;;;;;5010749;28;20042;-69
2022/04/30 07:43:40;;;;;;;5.55;4.85;;;18.00;66.30;;;;;;5012945;28;20076;-69
2022/04/30 07:46:05;;;;;;;7.45;4.90;;;17.80;65.90;;;;;;5013015;28;20026;-69
2022/04/30 07:48:31;;;;;;;6.60;4.72;;;17.70;65.90;;;;;;5012115;28;20135;-69
2022/04/30 07:50:58;;;;;;;5.43;4.78;;;17.60;65.60;;;;;;5012496;28;20022;-69
2022/04/30 07:53:25;;;;;;;6.53;5.10;;;17.50;65.40;;;;;;5029385;28;20507;-69
2022/04/30 07:55:52;;;;;;;6.18;4.70;;;17.50;65.50;;;;;;5032144;28;20029;-69
2022/04/30 07:58:18;;;;;;;5.43;4.75;;;17.50;65.50;;;;;;5028839;28;20423;-69
2022/04/30 08:00:44;;;;;;;5.82;4.53;;;17.50;65.20;;;;;;5026176;28;20018;-68
2022/04/30 08:03:10;;;;;;;5.43;4.18;;;17.40;65.20;;;;;;5029256;28;20029;-69
2022/04/30 08:05:35;;;;;;;6.72;3.70;;;17.40;65.20;;;;;;5030555;28;20200;-68
2022/04/30 08:08:01;;;;;;;3.90;3.50;;;17.40;64.90;;;;;;5031652;28;20104;-69
2022/04/30 08:10:26;;;;;;;5.22;3.92;;;17.40;64.90;;;;;;5031301;28;20499;-68
2022/04/30 08:12:56;;;;;;;5.60;4.00;;;17.40;64.60;;;;;;5026637;28;20412;-69
2022/04/30 08:15:25;;;;;;;5.45;4.03;;;17.40;64.30;;;;;;5021548;28;20101;-69
2022/04/30 08:17:51;;;;;;;6.10;3.97;;;17.40;64.30;;;;;;5012319;28;20037;-69
2022/04/30 08:20:17;;;;;;;4.13;3.72;;;17.30;64.10;;;;;;5012179;28;20393;-69
2022/04/30 08:22:43;;;;;;;7.10;4.13;;;17.30;64.00;;;;;;5011218;28;20040;-69
2022/04/30 08:25:09;;;;;;;8.30;4.10;;;17.30;63.80;;;;;;5011549;28;20017;-69
2022/04/30 08:27:34;;;;;;;6.70;4.32;;;17.30;63.60;;;;;;5012373;28;20030;-69
2022/04/30 08:30:00;;;;;;;3.83;3.53;;;17.20;63.50;;;;;;5012315;28;20022;-69
2022/04/30 08:32:26;;;;;;;4.47;3.65;;;17.20;63.20;;;;;;5012181;28;20034;-69
2022/04/30 08:34:51;;;;;;;6.03;3.78;;;17.20;63.30;;;;;;5011036;28;20377;-69
2022/04/30 08:37:17;;;;;;;4.13;3.72;;;17.20;63.20;;;;;;5018689;28;20076;-69
2022/04/30 08:39:44;;;;;;;4.50;3.50;;;17.20;63.10;;;;;;5030032;28;20014;-69
2022/04/30 08:42:10;;;;;;;3.72;3.00;;;17.20;63.00;;;;;;5030279;28;20030;-69
2022/04/30 08:44:37;;;;;;;7.68;3.60;;;17.20;62.90;;;;;;5029885;28;20033;-69
2022/04/30 08:47:04;;;;;;;4.60;3.10;;;17.20;62.80;;;;;;5030012;28;20403;-69
2022/04/30 08:49:33;;;;;;;7.72;4.00;;;17.10;62.60;;;;;;5032066;28;20028;-69
2022/04/30 08:51:59;;;;;;;5.28;3.60;;;17.20;62.50;;;;;;5034984;28;20029;-69
2022/04/30 08:54:25;;;;;;;8.73;3.78;;;17.10;62.40;;;;;;5033963;28;20415;-69
2022/04/30 08:56:54;;;;;;;7.03;3.42;;;17.10;62.10;;;;;;5034958;28;20029;-69
2022/04/30 08:59:20;;;;;;;5.03;3.75;;;17.10;62.10;;;;;;5034021;28;20176;-69
2022/04/30 09:01:50;;;;;;;7.07;3.38;;;17.10;62.00;;;;;;5033687;28;20120;-69
2022/04/30 09:04:16;;;;;;;4.47;3.60;;;17.10;61.90;;;;;;5034742;28;20033;-69
2022/04/30 09:06:49;;;;;;;5.30;3.47;;;17.00;61.70;;;;;;5033605;28;20116;-69
2022/04/30 09:09:26;;;;;;;3.70;3.40;;;17.00;61.60;;;;;;5033681;28;20404;-69
2022/04/30 09:11:53;;;;;;;4.82;3.25;;;17.10;61.40;;;;;;5033639;28;20164;-69
2022/04/30 09:14:25;;;;;;;5.72;3.80;;;17.00;61.70;;;;;;5033447;28;20020;-69
2022/04/30 09:17:03;;;;;;;10.45;4.40;;;17.10;61.60;;;;;;5033017;28;20037;-69
2022/04/30 09:19:29;;;;;;;11.55;4.88;;;17.10;61.60;;;;;;5033954;28;20029;-70
2022/04/30 09:21:55;;;;;;;14.02;4.43;;;17.10;61.80;;;;;;5035068;28;20037;-69
2022/04/30 09:24:21;;;;;;;16.95;4.53;;;17.10;62.10;;;;;;5034070;28;20444;-69
2022/04/30 09:26:46;;;;;;;19.67;4.63;;;17.20;62.00;;;;;;5034074;28;20029;-68
2022/04/30 09:29:38;;;;;;;8.13;3.38;;;17.20;62.00;;;;;;5035206;28;20411;-70
2022/04/30 09:32:05;;;;;;;12.18;3.97;;;17.30;61.80;;;;;;5032655;28;20041;-69
2022/04/30 09:40:16;;;;;;;12.40;4.03;;;17.30;62.30;;;;;;5034168;28;20049;-68
2022/04/30 09:42:43;;;;;;;13.32;4.18;;;17.30;62.40;;;;;;5028954;28;20507;-68
2022/04/30 09:45:10;;;;;;;9.57;4.00;;;17.30;62.40;;;;;;5031898;28;20045;-68
2022/04/30 09:47:35;;;;;;;6.25;3.45;;;17.30;62.50;;;;;;5017192;28;20025;-68
2022/04/30 09:55:31;;;;;;;8.88;3.47;;;17.40;62.60;;;;;;5033261;28;20075;-68
2022/04/30 09:58:07;;;;;;;10.52;3.65;;;17.30;62.70;;;;;;5016168;28;20025;-68
2022/04/30 10:00:33;;;;;;;6.07;3.05;;;17.40;62.70;;;;;;5015936;28;20025;-68
2022/04/30 10:03:02;;;;;;;7.30;3.50;;;17.30;62.70;;;;;;5033223;28;20075;-68
2022/04/30 10:05:36;;;;;;;11.02;3.38;;;17.40;62.80;;;;;;5033543;28;20503;-69
2022/04/30 10:08:02;;;;;;;10.90;2.97;;;17.40;62.90;;;;;;5034443;28;20388;-68
2022/04/30 10:10:31;;;;;;;6.63;3.08;;;17.30;62.80;;;;;;5033209;28;20022;-68
2022/04/30 10:13:20;;;;;;;5.53;3.20;;;17.40;62.90;;;;;;5034178;28;20025;-68
2022/04/30 10:15:52;;;;;;;8.43;3.50;;;17.40;62.90;;;;;;5032984;28;20434;-69
2022/04/30 10:18:20;;;;;;;6.85;3.33;;;17.40;63.00;;;;;;5033149;28;20392;-68
2022/04/30 10:20:53;;;;;;;5.85;3.10;;;17.30;63.00;;;;;;5033075;28;20112;-68
2022/04/30 10:23:19;;;;;;;5.63;3.38;;;17.40;63.10;;;;;;5032956;28;20079;-68
2022/04/30 10:25:48;;;;;;;7.47;3.35;;;17.40;63.00;;;;;;5034130;28;20030;-68
2022/04/30 10:28:21;;;;;;;4.30;3.05;;;17.40;63.00;;;;;;5033014;28;20023;-68
2022/04/30 10:31:11;;;;;;;6.85;2.60;;;17.40;63.00;;;;;;5033916;28;20033;-68
2022/04/30 10:33:48;;;;;;;7.57;2.83;;;17.40;63.00;;;;;;5033010;28;20032;-68
2022/04/30 10:36:14;;;;;;;6.03;3.03;;;17.40;63.10;;;;;;5016457;28;20061;-68
2022/04/30 10:38:40;;;;;;;5.32;2.80;;;17.30;63.10;;;;;;5034105;28;20067;-68
2022/04/30 10:41:10;;;;;;;7.00;3.00;;;17.30;63.10;;;;;;5032279;28;20042;-68
2022/04/30 10:43:40;;;;;;;6.15;3.33;;;17.30;63.10;;;;;;5016239;28;20029;-68
2022/04/30 10:46:23;;;;;;;5.68;2.90;;;17.30;63.20;;;;;;5032406;28;20048;-68
2022/04/30 10:48:49;;;;;;;3.47;2.58;;;17.40;63.20;;;;;;5032733;28;20034;-68
2022/04/30 10:51:16;;;;;;;5.13;2.80;;;17.30;63.20;;;;;;5032474;28;20040;-68
2022/04/30 10:53:43;;;;;;;8.65;2.55;;;17.30;63.20;;;;;;5033431;28;20021;-68
2022/04/30 10:56:09;;;;;;;5.60;3.03;;;17.30;63.20;;;;;;5016024;28;20022;-68
2022/04/30 10:58:36;;;;;;;5.80;3.22;;;17.30;63.10;;;;;;5032255;28;20628;-68
2022/04/30 11:01:18;;;;;;;4.68;2.80;;;17.30;63.20;;;;;;5032248;28;20101;-68
2022/04/30 11:03:45;;;;;;;;;;;17.40;63.30;;;;;;5016272;28;20022;-68
2022/04/30 11:06:11;;;;;;;4.97;2.38;;;17.30;63.20;;;;;;5033262;28;20267;-68
2022/04/30 11:08:37;;;;;;;4.18;2.90;;;17.20;63.40;;;;;;5032384;28;20021;-68
2022/04/30 11:11:02;;;;;;;5.55;2.83;;;17.30;63.40;;;;;;5031902;28;20109;-68
2022/04/30 11:13:28;;;;;;;5.97;2.85;;;17.30;63.30;;;;;;5032829;28;20164;-68
2022/04/30 11:15:57;;;;;;;3.78;2.88;;;17.30;63.30;;;;;;5015330;28;20047;-68
2022/04/30 11:18:23;;;;;;;3.50;2.90;;;17.30;63.20;;;;;;5032066;28;20022;-68
2022/04/30 11:20:48;;;;;;;4.55;3.00;;;17.30;63.20;;;;;;5033210;28;20017;-68
2022/04/30 11:23:23;;;;;;;4.65;2.60;;;17.30;63.20;;;;;;5033014;28;20517;-68
2022/04/30 11:25:49;;;;;;;5.53;3.20;;;17.30;63.10;;;;;;5031684;28;20028;-68
2022/04/30 11:28:15;;;;;;;3.50;3.15;;;17.30;63.10;;;;;;5015125;28;20033;-68
2022/04/30 11:30:41;;;;;;;4.93;2.90;;;17.30;63.10;;;;;;5033024;28;20022;-68
2022/04/30 11:33:08;;;;;;;4.78;2.90;;;17.30;63.10;;;;;;5031687;28;20036;-68
2022/04/30 11:35:33;;;;;;;4.13;2.97;;;17.30;63.10;;;;;;5031805;28;20018;-68
2022/04/30 11:37:59;;;;;;;5.93;3.03;;;17.30;63.10;;;;;;5031628;28;20032;-68
2022/04/30 11:40:26;;;;;;;3.42;2.58;;;17.30;63.10;;;;;;5031475;28;20056;-68
2022/04/30 11:42:55;;;;;;;3.42;2.67;;;17.30;63.10;;;;;;5032427;28;20514;-68
2022/04/30 11:45:25;;;;;;;3.60;2.60;;;17.30;63.10;;;;;;5032762;28;20495;-68
2022/04/30 11:47:51;;;;;;;5.70;2.45;;;17.30;63.10;;;;;;5032573;28;20489;-68
2022/04/30 11:50:17;;;;;;;3.72;2.50;;;17.30;63.10;;;;;;5032763;28;20035;-68
2022/04/30 11:52:42;;;;;;;4.72;2.80;;;17.30;63.10;;;;;;5031386;28;20079;-68
2022/04/30 11:55:08;;;;;;;4.18;2.72;;;17.30;63.10;;;;;;5031220;28;20017;-68
2022/04/30 11:57:34;;;;;;;4.43;2.90;;;17.30;63.10;;;;;;5031368;28;20353;-68
2022/04/30 12:00:00;;;;;;;3.03;2.70;;;17.30;63.10;;;;;;5014963;28;20021;-68
2022/04/30 12:02:28;;;;;;;4.53;2.95;;;17.30;63.10;;;;;;5031189;28;20096;-68
2022/04/30 12:05:03;;;;;;;3.00;2.70;;;17.30;63.10;;;;;;5032490;28;20018;-68
2022/04/30 12:07:35;;;;;;;4.57;3.47;;;17.40;63.10;;;;;;5015497;28;20040;-68
2022/04/30 12:10:01;;;;;;;3.13;2.83;;;17.40;63.10;;;;;;5032375;28;20400;-68
2022/04/30 12:12:28;;;;;;;3.20;2.90;;;17.30;63.10;;;;;;5030985;28;20037;-68
2022/04/30 12:14:55;;;;;;;2.80;2.60;;;17.30;63.10;;;;;;5014870;28;20017;-68
2022/04/30 12:17:31;;;;;;;3.55;2.78;;;17.30;64.10;;;;;;5031248;28;20060;-68
2022/04/30 12:25:32;;;;;;;4.03;2.75;;;17.30;63.10;;;;;;5021180;28;20032;-68
2022/04/30 12:27:59;;;;;;;3.80;2.60;;;17.30;63.10;;;;;;5035153;28;20108;-68
2022/04/30 12:30:25;;;;;;;4.20;2.70;;;17.30;63.10;;;;;;5036373;28;20025;-68
2022/04/30 12:32:58;;;;;;;3.53;2.75;;;17.30;63.10;;;;;;5034939;28;20025;-68
2022/04/30 12:35:25;;;;;;;3.28;2.92;;;17.40;63.10;;;;;;5036296;28;20018;-68
2022/04/30 12:38:07;;;;;;;5.47;3.10;;;17.40;63.20;;;;;;5035132;28;20025;-68
2022/04/30 12:40:34;;;;;;;5.90;3.03;;;17.40;63.00;;;;;;5035610;28;20041;-68
2022/04/30 12:43:00;;;;;;;2.88;2.67;;;17.40;63.10;;;;;;5034665;28;20061;-68
2022/04/30 12:45:26;;;;;;;2.88;2.65;;;17.40;63.20;;;;;;5034896;28;20060;-68
2022/04/30 12:47:52;;;;;;;3.55;3.17;;;17.40;63.20;;;;;;5034793;28;20065;-69
2022/04/30 12:50:19;;;;;;;4.05;3.08;;;17.40;63.10;;;;;;5034581;28;20112;-68
2022/04/30 12:52:45;;;;;;;3.85;2.88;;;17.40;63.10;;;;;;5034703;28;20040;-68
2022/04/30 12:55:12;;;;;;;3.28;2.97;;;17.40;63.10;;;;;;5034243;28;20021;-68
2022/04/30 12:57:38;;;;;;;3.53;3.00;;;17.40;63.00;;;;;;5034667;28;20488;-68
2022/04/30 13:00:05;;;;;;;4.78;3.40;;;17.40;63.00;;;;;;5018039;28;20425;-68
2022/04/30 13:02:31;;;;;;;4.13;3.35;;;17.40;63.00;;;;;;5034478;28;20465;-68
2022/04/30 13:04:56;;;;;;;3.35;3.00;;;17.40;63.00;;;;;;5035693;28;20077;-68
2022/04/30 13:07:22;;;;;;;4.13;3.10;;;17.40;63.00;;;;;;5034407;28;20071;-68
2022/04/30 13:15:16;;;;;;;4.45;3.20;;;17.40;63.00;;;;;;5035411;28;20044;-68
2022/04/30 13:17:42;;;;;;;3.92;3.30;;;17.40;62.90;;;;;;5035400;28;20544;-68
2022/04/30 13:20:10;;;;;;;3.78;3.13;;;17.40;63.00;;;;;;5035402;28;20067;-68
2022/04/30 13:22:36;;;;;;;3.45;3.15;;;17.40;63.00;;;;;;5035196;28;20056;-68
2022/04/30 13:25:02;;;;;;;3.85;2.90;;;17.40;63.00;;;;;;5035020;28;20022;-68
2022/04/30 13:27:27;;;;;;;4.10;2.72;;;17.40;63.00;;;;;;5035389;28;20026;-68
2022/04/30 13:29:53;;;;;;;3.53;3.22;;;17.40;62.90;;;;;;5035221;28;20021;-68
2022/04/30 13:32:19;;;;;;;3.78;3.10;;;17.40;62.90;;;;;;5034862;28;20112;-68